sensor_id;sensor_type;location;lat;lon;timestamp;P1;durP1;ratioP1;P2;durP2;ratioP2
6531;SDS011;3299;42.004;24.868;2023-07-13T00:00:33;9.48;;;6.10;;
6531;SDS011;3299;42.004;24.868;2023-07-13T00:02:58;7.15;;;6.03;;
6531;SDS011;3299;42.004;24.868;2023-07-13T00:05:24;7.85;;;6.45;;
6531;SDS011;3299;42.004;24.868;2023-07-13T00:07:49;6.40;;;5.80;;
6531;SDS011;3299;42.004;24.868;2023-07-13T00:10:16;8.27;;;6.35;;
6531;SDS011;3299;42.004;24.868;2023-07-13T00:12:42;8.02;;;6.50;;
6531;SDS011;3299;42.004;24.868;2023-07-13T00:15:15;5.75;;;5.25;;
6531;SDS011;3299;42.004;24.868;2023-07-13T00:17:45;7.82;;;5.88;;
6531;SDS011;3299;42.004;24.868;2023-07-13T00:20:12;7.18;;;5.57;;
6531;SDS011;3299;42.004;24.868;2023-07-13T00:22:38;6.45;;;5.85;;
6531;SDS011;3299;42.004;24.868;2023-07-13T00:25:03;7.95;;;5.78;;
6531;SDS011;3299;42.004;24.868;2023-07-13T00:27:29;16.38;;;6.03;;
6531;SDS011;3299;42.004;24.868;2023-07-13T00:29:56;6.20;;;5.60;;
6531;SDS011;3299;42.004;24.868;2023-07-13T00:32:22;5.93;;;5.32;;
6531;SDS011;3299;42.004;24.868;2023-07-13T00:34:50;9.73;;;5.55;;
6531;SDS011;3299;42.004;24.868;2023-07-13T00:37:16;7.32;;;5.90;;
6531;SDS011;3299;42.004;24.868;2023-07-13T00:39:41;8.82;;;5.97;;
6531;SDS011;3299;42.004;24.868;2023-07-13T00:42:06;6.78;;;6.07;;
6531;SDS011;3299;42.004;24.868;2023-07-13T00:44:32;10.27;;;6.30;;
6531;SDS011;3299;42.004;24.868;2023-07-13T00:46:57;7.50;;;5.78;;
6531;SDS011;3299;42.004;24.868;2023-07-13T00:49:24;7.95;;;5.28;;
6531;SDS011;3299;42.004;24.868;2023-07-13T00:54:32;6.35;;;5.35;;
6531;SDS011;3299;42.004;24.868;2023-07-13T00:57:03;6.38;;;5.82;;
6531;SDS011;3299;42.004;24.868;2023-07-13T00:59:32;7.65;;;5.53;;
6531;SDS011;3299;42.004;24.868;2023-07-13T01:02:02;6.13;;;5.22;;
6531;SDS011;3299;42.004;24.868;2023-07-13T01:04:28;5.70;;;5.05;;
6531;SDS011;3299;42.004;24.868;2023-07-13T01:06:53;5.40;;;4.90;;
6531;SDS011;3299;42.004;24.868;2023-07-13T01:09:19;6.22;;;5.63;;
6531;SDS011;3299;42.004;24.868;2023-07-13T01:11:45;7.65;;;5.30;;
6531;SDS011;3299;42.004;24.868;2023-07-13T01:14:11;7.57;;;5.78;;
6531;SDS011;3299;42.004;24.868;2023-07-13T01:16:37;7.93;;;5.68;;
6531;SDS011;3299;42.004;24.868;2023-07-13T01:19:48;5.55;;;5.05;;
6531;SDS011;3299;42.004;24.868;2023-07-13T01:22:08;6.65;;;5.90;;
6531;SDS011;3299;42.004;24.868;2023-07-13T01:24:36;5.80;;;5.25;;
6531;SDS011;3299;42.004;24.868;2023-07-13T01:27:04;6.32;;;5.72;;
6531;SDS011;3299;42.004;24.868;2023-07-13T01:29:32;6.68;;;5.88;;
6531;SDS011;3299;42.004;24.868;2023-07-13T01:31:58;6.53;;;5.90;;
6531;SDS011;3299;42.004;24.868;2023-07-13T01:34:25;6.90;;;5.50;;
6531;SDS011;3299;42.004;24.868;2023-07-13T01:36:51;6.45;;;5.82;;
6531;SDS011;3299;42.004;24.868;2023-07-13T01:39:18;6.07;;;5.47;;
6531;SDS011;3299;42.004;24.868;2023-07-13T01:41:45;8.18;;;5.40;;
6531;SDS011;3299;42.004;24.868;2023-07-13T01:44:11;6.15;;;5.45;;
6531;SDS011;3299;42.004;24.868;2023-07-13T01:46:36;6.88;;;5.15;;
6531;SDS011;3299;42.004;24.868;2023-07-13T01:49:01;7.03;;;5.03;;
6531;SDS011;3299;42.004;24.868;2023-07-13T01:51:27;7.45;;;5.47;;
6531;SDS011;3299;42.004;24.868;2023-07-13T01:53:52;5.63;;;5.03;;
6531;SDS011;3299;42.004;24.868;2023-07-13T01:56:18;5.93;;;5.00;;
6531;SDS011;3299;42.004;24.868;2023-07-13T01:58:44;7.30;;;4.97;;
6531;SDS011;3299;42.004;24.868;2023-07-13T02:01:10;5.70;;;5.05;;
6531;SDS011;3299;42.004;24.868;2023-07-13T02:03:36;7.68;;;5.80;;
6531;SDS011;3299;42.004;24.868;2023-07-13T02:06:01;5.32;;;4.93;;
6531;SDS011;3299;42.004;24.868;2023-07-13T02:08:26;8.82;;;5.30;;
6531;SDS011;3299;42.004;24.868;2023-07-13T02:10:52;5.78;;;5.28;;
6531;SDS011;3299;42.004;24.868;2023-07-13T02:13:17;7.18;;;5.95;;
6531;SDS011;3299;42.004;24.868;2023-07-13T02:15:43;6.97;;;5.20;;
6531;SDS011;3299;42.004;24.868;2023-07-13T02:18:08;8.20;;;5.72;;
6531;SDS011;3299;42.004;24.868;2023-07-13T02:20:34;7.03;;;5.22;;
6531;SDS011;3299;42.004;24.868;2023-07-13T02:23:00;6.00;;;5.40;;
6531;SDS011;3299;42.004;24.868;2023-07-13T02:25:25;5.68;;;5.15;;
6531;SDS011;3299;42.004;24.868;2023-07-13T02:27:52;7.25;;;5.55;;
6531;SDS011;3299;42.004;24.868;2023-07-13T02:30:17;6.57;;;5.40;;
6531;SDS011;3299;42.004;24.868;2023-07-13T02:32:43;5.82;;;5.22;;
6531;SDS011;3299;42.004;24.868;2023-07-13T02:35:09;5.40;;;4.90;;
6531;SDS011;3299;42.004;24.868;2023-07-13T02:37:35;7.00;;;5.32;;
6531;SDS011;3299;42.004;24.868;2023-07-13T02:40:00;6.57;;;5.80;;
6531;SDS011;3299;42.004;24.868;2023-07-13T02:42:28;7.75;;;5.75;;
6531;SDS011;3299;42.004;24.868;2023-07-13T02:44:53;6.43;;;5.70;;
6531;SDS011;3299;42.004;24.868;2023-07-13T02:47:21;8.23;;;5.80;;
6531;SDS011;3299;42.004;24.868;2023-07-13T02:49:46;6.70;;;5.32;;
6531;SDS011;3299;42.004;24.868;2023-07-13T02:52:11;5.88;;;5.38;;
6531;SDS011;3299;42.004;24.868;2023-07-13T02:54:37;5.95;;;5.25;;
6531;SDS011;3299;42.004;24.868;2023-07-13T02:57:02;6.55;;;5.68;;
6531;SDS011;3299;42.004;24.868;2023-07-13T02:59:28;7.32;;;5.65;;
6531;SDS011;3299;42.004;24.868;2023-07-13T03:01:53;7.13;;;5.07;;
6531;SDS011;3299;42.004;24.868;2023-07-13T03:04:19;6.00;;;5.40;;
6531;SDS011;3299;42.004;24.868;2023-07-13T03:06:44;7.15;;;5.50;;
6531;SDS011;3299;42.004;24.868;2023-07-13T03:09:10;5.50;;;5.00;;
6531;SDS011;3299;42.004;24.868;2023-07-13T03:11:37;6.03;;;5.50;;
6531;SDS011;3299;42.004;24.868;2023-07-13T03:14:03;7.43;;;5.40;;
6531;SDS011;3299;42.004;24.868;2023-07-13T03:16:28;7.05;;;5.20;;
6531;SDS011;3299;42.004;24.868;2023-07-13T03:18:54;7.32;;;5.50;;
6531;SDS011;3299;42.004;24.868;2023-07-13T03:21:20;5.95;;;5.20;;
6531;SDS011;3299;42.004;24.868;2023-07-13T03:23:45;4.93;;;4.53;;
6531;SDS011;3299;42.004;24.868;2023-07-13T03:26:12;7.28;;;5.40;;
6531;SDS011;3299;42.004;24.868;2023-07-13T03:28:40;8.18;;;5.65;;
6531;SDS011;3299;42.004;24.868;2023-07-13T03:31:08;7.97;;;5.72;;
6531;SDS011;3299;42.004;24.868;2023-07-13T03:33:37;10.95;;;5.85;;
6531;SDS011;3299;42.004;24.868;2023-07-13T03:36:06;7.10;;;5.97;;
6531;SDS011;3299;42.004;24.868;2023-07-13T03:38:35;7.30;;;6.00;;
6531;SDS011;3299;42.004;24.868;2023-07-13T03:41:00;6.70;;;5.55;;
6531;SDS011;3299;42.004;24.868;2023-07-13T03:43:26;8.20;;;6.13;;
6531;SDS011;3299;42.004;24.868;2023-07-13T03:45:51;6.70;;;5.57;;
6531;SDS011;3299;42.004;24.868;2023-07-13T03:48:17;6.53;;;5.93;;
6531;SDS011;3299;42.004;24.868;2023-07-13T03:50:42;6.43;;;5.30;;
6531;SDS011;3299;42.004;24.868;2023-07-13T03:53:08;6.28;;;5.50;;
6531;SDS011;3299;42.004;24.868;2023-07-13T03:55:34;6.22;;;5.10;;
6531;SDS011;3299;42.004;24.868;2023-07-13T03:58:00;5.32;;;4.82;;
6531;SDS011;3299;42.004;24.868;2023-07-13T04:00:46;6.25;;;5.63;;
6531;SDS011;3299;42.004;24.868;2023-07-13T04:03:12;6.40;;;4.93;;
6531;SDS011;3299;42.004;24.868;2023-07-13T04:05:37;7.28;;;5.20;;
6531;SDS011;3299;42.004;24.868;2023-07-13T04:08:05;6.95;;;5.13;;
6531;SDS011;3299;42.004;24.868;2023-07-13T04:10:31;10.00;;;5.18;;
6531;SDS011;3299;42.004;24.868;2023-07-13T04:12:56;5.78;;;5.28;;
6531;SDS011;3299;42.004;24.868;2023-07-13T04:15:21;4.90;;;4.50;;
6531;SDS011;3299;42.004;24.868;2023-07-13T04:17:47;5.55;;;4.72;;
6531;SDS011;3299;42.004;24.868;2023-07-13T04:20:12;6.65;;;5.50;;
6531;SDS011;3299;42.004;24.868;2023-07-13T04:22:37;5.70;;;5.15;;
6531;SDS011;3299;42.004;24.868;2023-07-13T04:25:03;5.78;;;5.18;;
6531;SDS011;3299;42.004;24.868;2023-07-13T04:27:30;6.45;;;5.55;;
6531;SDS011;3299;42.004;24.868;2023-07-13T04:29:55;6.10;;;5.45;;
6531;SDS011;3299;42.004;24.868;2023-07-13T04:32:21;7.30;;;5.63;;
6531;SDS011;3299;42.004;24.868;2023-07-13T04:34:46;6.13;;;5.50;;
6531;SDS011;3299;42.004;24.868;2023-07-13T04:37:12;7.72;;;5.47;;
6531;SDS011;3299;42.004;24.868;2023-07-13T04:39:37;6.10;;;5.47;;
6531;SDS011;3299;42.004;24.868;2023-07-13T04:42:03;5.68;;;5.10;;
6531;SDS011;3299;42.004;24.868;2023-07-13T04:44:29;8.30;;;5.35;;
6531;SDS011;3299;42.004;24.868;2023-07-13T04:46:54;6.32;;;5.70;;
6531;SDS011;3299;42.004;24.868;2023-07-13T04:49:20;5.50;;;5.00;;
6531;SDS011;3299;42.004;24.868;2023-07-13T04:51:45;9.07;;;6.22;;
6531;SDS011;3299;42.004;24.868;2023-07-13T04:54:11;6.50;;;5.45;;
6531;SDS011;3299;42.004;24.868;2023-07-13T04:56:36;7.72;;;5.03;;
6531;SDS011;3299;42.004;24.868;2023-07-13T04:59:01;6.43;;;5.15;;
6531;SDS011;3299;42.004;24.868;2023-07-13T05:01:27;6.00;;;5.22;;
6531;SDS011;3299;42.004;24.868;2023-07-13T05:03:52;7.35;;;5.15;;
6531;SDS011;3299;42.004;24.868;2023-07-13T05:06:18;9.45;;;5.03;;
6531;SDS011;3299;42.004;24.868;2023-07-13T05:08:43;8.43;;;5.18;;
6531;SDS011;3299;42.004;24.868;2023-07-13T05:11:08;8.75;;;6.32;;
6531;SDS011;3299;42.004;24.868;2023-07-13T05:13:34;9.68;;;7.10;;
6531;SDS011;3299;42.004;24.868;2023-07-13T05:16:00;11.52;;;7.93;;
6531;SDS011;3299;42.004;24.868;2023-07-13T05:18:27;13.40;;;8.07;;
6531;SDS011;3299;42.004;24.868;2023-07-13T05:21:03;16.73;;;8.27;;
6531;SDS011;3299;42.004;24.868;2023-07-13T05:23:31;13.63;;;8.52;;
6531;SDS011;3299;42.004;24.868;2023-07-13T05:25:57;13.70;;;8.23;;
6531;SDS011;3299;42.004;24.868;2023-07-13T05:28:23;11.98;;;8.10;;
6531;SDS011;3299;42.004;24.868;2023-07-13T05:30:49;12.73;;;8.40;;
6531;SDS011;3299;42.004;24.868;2023-07-13T05:33:15;10.13;;;7.40;;
6531;SDS011;3299;42.004;24.868;2023-07-13T05:35:41;10.98;;;8.45;;
6531;SDS011;3299;42.004;24.868;2023-07-13T05:38:06;10.65;;;7.40;;
6531;SDS011;3299;42.004;24.868;2023-07-13T05:40:32;11.13;;;7.80;;
6531;SDS011;3299;42.004;24.868;2023-07-13T05:42:57;13.27;;;7.60;;
6531;SDS011;3299;42.004;24.868;2023-07-13T05:45:23;6.93;;;5.82;;
6531;SDS011;3299;42.004;24.868;2023-07-13T05:47:48;6.90;;;5.35;;
6531;SDS011;3299;42.004;24.868;2023-07-13T05:50:13;7.35;;;5.18;;
6531;SDS011;3299;42.004;24.868;2023-07-13T05:52:39;6.28;;;4.95;;
6531;SDS011;3299;42.004;24.868;2023-07-13T05:55:04;9.48;;;6.13;;
6531;SDS011;3299;42.004;24.868;2023-07-13T05:57:30;11.80;;;5.95;;
6531;SDS011;3299;42.004;24.868;2023-07-13T05:59:56;10.98;;;5.63;;
6531;SDS011;3299;42.004;24.868;2023-07-13T06:02:22;13.82;;;8.38;;
6531;SDS011;3299;42.004;24.868;2023-07-13T06:04:47;13.25;;;8.45;;
6531;SDS011;3299;42.004;24.868;2023-07-13T06:07:12;12.93;;;8.18;;
6531;SDS011;3299;42.004;24.868;2023-07-13T06:09:38;15.50;;;7.78;;
6531;SDS011;3299;42.004;24.868;2023-07-13T06:12:03;13.40;;;8.00;;
6531;SDS011;3299;42.004;24.868;2023-07-13T06:14:29;10.75;;;7.35;;
6531;SDS011;3299;42.004;24.868;2023-07-13T06:16:55;10.32;;;6.95;;
6531;SDS011;3299;42.004;24.868;2023-07-13T06:19:21;15.00;;;8.43;;
6531;SDS011;3299;42.004;24.868;2023-07-13T06:21:46;12.25;;;7.65;;
6531;SDS011;3299;42.004;24.868;2023-07-13T06:24:11;8.68;;;6.55;;
6531;SDS011;3299;42.004;24.868;2023-07-13T06:26:37;9.80;;;7.40;;
6531;SDS011;3299;42.004;24.868;2023-07-13T06:29:02;9.63;;;6.38;;
6531;SDS011;3299;42.004;24.868;2023-07-13T06:31:28;17.13;;;7.05;;
6531;SDS011;3299;42.004;24.868;2023-07-13T06:33:53;18.67;;;7.95;;
6531;SDS011;3299;42.004;24.868;2023-07-13T06:36:18;16.50;;;8.00;;
6531;SDS011;3299;42.004;24.868;2023-07-13T06:38:44;18.42;;;8.85;;
6531;SDS011;3299;42.004;24.868;2023-07-13T06:41:09;21.10;;;9.10;;
6531;SDS011;3299;42.004;24.868;2023-07-13T06:43:35;18.13;;;8.73;;
6531;SDS011;3299;42.004;24.868;2023-07-13T06:46:00;20.85;;;9.93;;
6531;SDS011;3299;42.004;24.868;2023-07-13T06:48:26;11.23;;;8.52;;
6531;SDS011;3299;42.004;24.868;2023-07-13T06:50:52;13.50;;;9.35;;
6531;SDS011;3299;42.004;24.868;2023-07-13T06:53:19;19.58;;;9.13;;
6531;SDS011;3299;42.004;24.868;2023-07-13T06:55:44;16.98;;;9.48;;
6531;SDS011;3299;42.004;24.868;2023-07-13T06:58:10;14.15;;;9.27;;
6531;SDS011;3299;42.004;24.868;2023-07-13T07:00:36;17.20;;;8.70;;
6531;SDS011;3299;42.004;24.868;2023-07-13T07:03:01;12.18;;;8.90;;
6531;SDS011;3299;42.004;24.868;2023-07-13T07:05:27;12.85;;;8.77;;
6531;SDS011;3299;42.004;24.868;2023-07-13T07:07:54;16.65;;;9.48;;
6531;SDS011;3299;42.004;24.868;2023-07-13T07:10:20;14.50;;;8.60;;
6531;SDS011;3299;42.004;24.868;2023-07-13T07:12:46;14.45;;;8.68;;
6531;SDS011;3299;42.004;24.868;2023-07-13T07:15:11;14.20;;;8.68;;
6531;SDS011;3299;42.004;24.868;2023-07-13T07:17:37;16.92;;;8.82;;
6531;SDS011;3299;42.004;24.868;2023-07-13T07:20:02;14.20;;;7.97;;
6531;SDS011;3299;42.004;24.868;2023-07-13T07:22:29;14.35;;;8.25;;
6531;SDS011;3299;42.004;24.868;2023-07-13T07:24:55;13.85;;;8.55;;
6531;SDS011;3299;42.004;24.868;2023-07-13T07:27:22;15.02;;;8.07;;
6531;SDS011;3299;42.004;24.868;2023-07-13T07:29:48;13.98;;;7.20;;
6531;SDS011;3299;42.004;24.868;2023-07-13T07:32:13;11.07;;;8.15;;
6531;SDS011;3299;42.004;24.868;2023-07-13T07:34:39;15.02;;;8.85;;
6531;SDS011;3299;42.004;24.868;2023-07-13T07:37:04;12.07;;;7.90;;
6531;SDS011;3299;42.004;24.868;2023-07-13T07:39:30;16.92;;;8.50;;
6531;SDS011;3299;42.004;24.868;2023-07-13T07:41:56;12.77;;;8.10;;
6531;SDS011;3299;42.004;24.868;2023-07-13T07:44:22;16.48;;;8.98;;
6531;SDS011;3299;42.004;24.868;2023-07-13T07:46:47;18.13;;;9.73;;
6531;SDS011;3299;42.004;24.868;2023-07-13T07:49:13;10.52;;;8.65;;
6531;SDS011;3299;42.004;24.868;2023-07-13T07:51:38;14.50;;;8.82;;
6531;SDS011;3299;42.004;24.868;2023-07-13T07:54:04;14.65;;;8.70;;
6531;SDS011;3299;42.004;24.868;2023-07-13T07:56:30;16.27;;;8.90;;
6531;SDS011;3299;42.004;24.868;2023-07-13T07:58:56;13.23;;;9.90;;
6531;SDS011;3299;42.004;24.868;2023-07-13T08:01:21;18.33;;;9.70;;
6531;SDS011;3299;42.004;24.868;2023-07-13T08:03:47;18.73;;;10.15;;
6531;SDS011;3299;42.004;24.868;2023-07-13T08:06:12;16.35;;;8.98;;
6531;SDS011;3299;42.004;24.868;2023-07-13T08:08:38;15.38;;;9.52;;
6531;SDS011;3299;42.004;24.868;2023-07-13T08:11:07;16.75;;;9.68;;
6531;SDS011;3299;42.004;24.868;2023-07-13T08:13:33;18.27;;;9.55;;
6531;SDS011;3299;42.004;24.868;2023-07-13T08:15:59;19.13;;;8.85;;
6531;SDS011;3299;42.004;24.868;2023-07-13T08:18:25;24.90;;;10.30;;
6531;SDS011;3299;42.004;24.868;2023-07-13T08:20:50;15.32;;;10.63;;
6531;SDS011;3299;42.004;24.868;2023-07-13T08:23:16;20.08;;;10.25;;
6531;SDS011;3299;42.004;24.868;2023-07-13T08:25:42;17.98;;;9.65;;
6531;SDS011;3299;42.004;24.868;2023-07-13T08:28:08;15.43;;;8.65;;
6531;SDS011;3299;42.004;24.868;2023-07-13T08:30:33;12.90;;;9.35;;
6531;SDS011;3299;42.004;24.868;2023-07-13T08:32:58;17.02;;;9.68;;
6531;SDS011;3299;42.004;24.868;2023-07-13T08:35:24;18.75;;;10.75;;
6531;SDS011;3299;42.004;24.868;2023-07-13T08:37:50;20.10;;;9.82;;
6531;SDS011;3299;42.004;24.868;2023-07-13T08:40:16;11.98;;;9.18;;
6531;SDS011;3299;42.004;24.868;2023-07-13T08:42:46;14.98;;;9.35;;
6531;SDS011;3299;42.004;24.868;2023-07-13T08:45:43;19.75;;;9.65;;
6531;SDS011;3299;42.004;24.868;2023-07-13T08:48:11;17.60;;;8.88;;
6531;SDS011;3299;42.004;24.868;2023-07-13T08:50:48;11.20;;;8.35;;
6531;SDS011;3299;42.004;24.868;2023-07-13T08:53:34;12.23;;;8.88;;
6531;SDS011;3299;42.004;24.868;2023-07-13T08:56:03;12.65;;;8.55;;
6531;SDS011;3299;42.004;24.868;2023-07-13T08:58:34;12.50;;;8.35;;
6531;SDS011;3299;42.004;24.868;2023-07-13T09:01:03;12.48;;;9.20;;
6531;SDS011;3299;42.004;24.868;2023-07-13T09:03:51;16.90;;;8.57;;
6531;SDS011;3299;42.004;24.868;2023-07-13T09:06:27;16.67;;;9.02;;
6531;SDS011;3299;42.004;24.868;2023-07-13T09:09:22;11.77;;;9.00;;
6531;SDS011;3299;42.004;24.868;2023-07-13T09:14:56;14.38;;;9.10;;
6531;SDS011;3299;42.004;24.868;2023-07-13T09:17:28;17.70;;;8.38;;
6531;SDS011;3299;42.004;24.868;2023-07-13T09:20:10;14.50;;;8.27;;
6531;SDS011;3299;42.004;24.868;2023-07-13T09:22:46;14.50;;;8.63;;
6531;SDS011;3299;42.004;24.868;2023-07-13T09:25:31;14.88;;;9.23;;
6531;SDS011;3299;42.004;24.868;2023-07-13T09:27:59;15.52;;;8.50;;
6531;SDS011;3299;42.004;24.868;2023-07-13T09:33:08;13.55;;;8.30;;
6531;SDS011;3299;42.004;24.868;2023-07-13T09:35:34;13.38;;;8.00;;
6531;SDS011;3299;42.004;24.868;2023-07-13T09:38:19;9.95;;;8.10;;
6531;SDS011;3299;42.004;24.868;2023-07-13T09:43:34;17.15;;;8.13;;
6531;SDS011;3299;42.004;24.868;2023-07-13T09:45:59;9.15;;;7.20;;
6531;SDS011;3299;42.004;24.868;2023-07-13T09:48:25;8.27;;;7.57;;
6531;SDS011;3299;42.004;24.868;2023-07-13T09:50:58;11.52;;;7.65;;
6531;SDS011;3299;42.004;24.868;2023-07-13T09:53:35;8.27;;;7.15;;
6531;SDS011;3299;42.004;24.868;2023-07-13T09:56:11;12.95;;;7.70;;
6531;SDS011;3299;42.004;24.868;2023-07-13T09:58:44;12.05;;;7.90;;
6531;SDS011;3299;42.004;24.868;2023-07-13T10:01:09;8.10;;;7.28;;
6531;SDS011;3299;42.004;24.868;2023-07-13T10:03:35;8.60;;;7.75;;
6531;SDS011;3299;42.004;24.868;2023-07-13T10:06:12;11.20;;;6.70;;
6531;SDS011;3299;42.004;24.868;2023-07-13T10:08:46;9.95;;;5.88;;
6531;SDS011;3299;42.004;24.868;2023-07-13T10:11:17;7.47;;;6.32;;
6531;SDS011;3299;42.004;24.868;2023-07-13T10:13:46;7.97;;;6.22;;
6531;SDS011;3299;42.004;24.868;2023-07-13T10:16:13;9.52;;;6.00;;
6531;SDS011;3299;42.004;24.868;2023-07-13T10:18:47;10.75;;;6.35;;
6531;SDS011;3299;42.004;24.868;2023-07-13T10:21:19;13.43;;;7.07;;
6531;SDS011;3299;42.004;24.868;2023-07-13T10:23:53;7.85;;;6.22;;
6531;SDS011;3299;42.004;24.868;2023-07-13T10:26:27;11.10;;;5.32;;
6531;SDS011;3299;42.004;24.868;2023-07-13T10:28:57;7.93;;;6.03;;
6531;SDS011;3299;42.004;24.868;2023-07-13T10:31:26;7.00;;;5.65;;
6531;SDS011;3299;42.004;24.868;2023-07-13T10:33:52;7.10;;;5.30;;
6531;SDS011;3299;42.004;24.868;2023-07-13T10:38:43;7.57;;;5.90;;
6531;SDS011;3299;42.004;24.868;2023-07-13T10:41:13;6.93;;;5.25;;
6531;SDS011;3299;42.004;24.868;2023-07-13T10:43:43;7.47;;;5.57;;
6531;SDS011;3299;42.004;24.868;2023-07-13T10:46:15;7.90;;;5.53;;
6531;SDS011;3299;42.004;24.868;2023-07-13T10:48:44;9.38;;;5.50;;
6531;SDS011;3299;42.004;24.868;2023-07-13T10:51:14;6.43;;;5.50;;
6531;SDS011;3299;42.004;24.868;2023-07-13T10:53:42;7.15;;;5.03;;
6531;SDS011;3299;42.004;24.868;2023-07-13T10:56:28;12.40;;;5.03;;
6531;SDS011;3299;42.004;24.868;2023-07-13T10:59:10;12.35;;;5.25;;
6531;SDS011;3299;42.004;24.868;2023-07-13T11:04:14;7.85;;;5.07;;
6531;SDS011;3299;42.004;24.868;2023-07-13T11:06:41;10.90;;;4.65;;
6531;SDS011;3299;42.004;24.868;2023-07-13T11:12:49;7.55;;;4.90;;
6531;SDS011;3299;42.004;24.868;2023-07-13T11:15:13;5.10;;;4.35;;
6531;SDS011;3299;42.004;24.868;2023-07-13T11:17:49;11.15;;;4.97;;
6531;SDS011;3299;42.004;24.868;2023-07-13T11:20:24;9.98;;;5.00;;
6531;SDS011;3299;42.004;24.868;2023-07-13T11:25:56;7.28;;;4.97;;
6531;SDS011;3299;42.004;24.868;2023-07-13T11:28:23;9.25;;;5.20;;
6531;SDS011;3299;42.004;24.868;2023-07-13T11:36:05;9.02;;;4.78;;
6531;SDS011;3299;42.004;24.868;2023-07-13T11:41:21;6.07;;;4.93;;
6531;SDS011;3299;42.004;24.868;2023-07-13T11:43:50;7.43;;;5.05;;
6531;SDS011;3299;42.004;24.868;2023-07-13T11:46:22;7.05;;;5.32;;
6531;SDS011;3299;42.004;24.868;2023-07-13T11:48:50;6.90;;;4.90;;
6531;SDS011;3299;42.004;24.868;2023-07-13T11:53:53;6.88;;;5.10;;
6531;SDS011;3299;42.004;24.868;2023-07-13T11:56:20;8.57;;;5.10;;
6531;SDS011;3299;42.004;24.868;2023-07-13T11:58:54;11.20;;;5.03;;
6531;SDS011;3299;42.004;24.868;2023-07-13T12:01:22;6.50;;;5.00;;
6531;SDS011;3299;42.004;24.868;2023-07-13T12:03:57;8.50;;;5.20;;
6531;SDS011;3299;42.004;24.868;2023-07-13T12:06:29;8.80;;;5.32;;
6531;SDS011;3299;42.004;24.868;2023-07-13T12:08:57;9.15;;;4.95;;
6531;SDS011;3299;42.004;24.868;2023-07-13T12:11:24;11.40;;;5.40;;
6531;SDS011;3299;42.004;24.868;2023-07-13T12:13:50;5.13;;;4.63;;
6531;SDS011;3299;42.004;24.868;2023-07-13T12:16:17;8.13;;;4.57;;
6531;SDS011;3299;42.004;24.868;2023-07-13T12:18:47;17.63;;;4.70;;
6531;SDS011;3299;42.004;24.868;2023-07-13T12:21:14;8.63;;;4.75;;
6531;SDS011;3299;42.004;24.868;2023-07-13T12:23:44;5.22;;;4.70;;
6531;SDS011;3299;42.004;24.868;2023-07-13T12:26:12;9.73;;;5.03;;
6531;SDS011;3299;42.004;24.868;2023-07-13T12:28:46;6.97;;;4.50;;
6531;SDS011;3299;42.004;24.868;2023-07-13T12:31:33;6.28;;;4.85;;
6531;SDS011;3299;42.004;24.868;2023-07-13T12:34:20;9.70;;;5.40;;
6531;SDS011;3299;42.004;24.868;2023-07-13T12:36:49;8.35;;;4.75;;
6531;SDS011;3299;42.004;24.868;2023-07-13T12:39:23;9.00;;;5.03;;
6531;SDS011;3299;42.004;24.868;2023-07-13T12:42:16;9.48;;;5.32;;
6531;SDS011;3299;42.004;24.868;2023-07-13T12:44:53;6.82;;;5.07;;
6531;SDS011;3299;42.004;24.868;2023-07-13T12:47:43;6.78;;;4.75;;
6531;SDS011;3299;42.004;24.868;2023-07-13T12:50:15;8.93;;;5.28;;
6531;SDS011;3299;42.004;24.868;2023-07-13T12:52:44;9.90;;;4.93;;
6531;SDS011;3299;42.004;24.868;2023-07-13T12:55:18;9.75;;;5.03;;
6531;SDS011;3299;42.004;24.868;2023-07-13T12:57:49;9.57;;;4.70;;
6531;SDS011;3299;42.004;24.868;2023-07-13T13:05:45;7.75;;;4.90;;
6531;SDS011;3299;42.004;24.868;2023-07-13T13:08:11;9.13;;;4.95;;
6531;SDS011;3299;42.004;24.868;2023-07-13T13:10:37;6.68;;;4.60;;
6531;SDS011;3299;42.004;24.868;2023-07-13T13:13:02;7.32;;;4.72;;
6531;SDS011;3299;42.004;24.868;2023-07-13T13:15:28;7.07;;;4.60;;
6531;SDS011;3299;42.004;24.868;2023-07-13T13:17:55;9.88;;;5.25;;
6531;SDS011;3299;42.004;24.868;2023-07-13T13:20:21;6.75;;;5.10;;
6531;SDS011;3299;42.004;24.868;2023-07-13T13:22:48;7.43;;;4.82;;
6531;SDS011;3299;42.004;24.868;2023-07-13T13:25:14;11.13;;;4.85;;
6531;SDS011;3299;42.004;24.868;2023-07-13T13:27:43;11.60;;;4.60;;
6531;SDS011;3299;42.004;24.868;2023-07-13T13:30:13;11.80;;;4.82;;
6531;SDS011;3299;42.004;24.868;2023-07-13T13:32:41;9.80;;;4.90;;
6531;SDS011;3299;42.004;24.868;2023-07-13T13:35:14;11.65;;;5.05;;
6531;SDS011;3299;42.004;24.868;2023-07-13T13:37:40;10.80;;;4.35;;
6531;SDS011;3299;42.004;24.868;2023-07-13T13:40:21;13.73;;;5.03;;
6531;SDS011;3299;42.004;24.868;2023-07-13T13:42:48;11.00;;;4.90;;
6531;SDS011;3299;42.004;24.868;2023-07-13T13:45:14;9.10;;;4.60;;
6531;SDS011;3299;42.004;24.868;2023-07-13T13:47:43;12.40;;;5.05;;
6531;SDS011;3299;42.004;24.868;2023-07-13T13:50:11;8.50;;;4.80;;
6531;SDS011;3299;42.004;24.868;2023-07-13T13:52:39;11.32;;;4.70;;
6531;SDS011;3299;42.004;24.868;2023-07-13T13:55:12;10.23;;;4.25;;
6531;SDS011;3299;42.004;24.868;2023-07-13T13:57:39;12.30;;;4.63;;
6531;SDS011;3299;42.004;24.868;2023-07-13T14:00:04;9.35;;;4.90;;
6531;SDS011;3299;42.004;24.868;2023-07-13T14:02:30;12.70;;;4.68;;
6531;SDS011;3299;42.004;24.868;2023-07-13T14:04:58;10.27;;;4.57;;
6531;SDS011;3299;42.004;24.868;2023-07-13T14:07:26;8.63;;;4.40;;
6531;SDS011;3299;42.004;24.868;2023-07-13T14:09:54;15.27;;;4.45;;
6531;SDS011;3299;42.004;24.868;2023-07-13T14:12:22;16.02;;;5.22;;
6531;SDS011;3299;42.004;24.868;2023-07-13T14:14:49;16.67;;;4.78;;
6531;SDS011;3299;42.004;24.868;2023-07-13T14:17:21;7.28;;;4.45;;
6531;SDS011;3299;42.004;24.868;2023-07-13T14:19:52;14.02;;;4.75;;
6531;SDS011;3299;42.004;24.868;2023-07-13T14:22:23;11.95;;;4.80;;
6531;SDS011;3299;42.004;24.868;2023-07-13T14:24:49;15.45;;;4.15;;
6531;SDS011;3299;42.004;24.868;2023-07-13T14:27:16;10.63;;;4.55;;
6531;SDS011;3299;42.004;24.868;2023-07-13T14:29:41;12.48;;;4.90;;
6531;SDS011;3299;42.004;24.868;2023-07-13T14:32:10;14.68;;;3.92;;
6531;SDS011;3299;42.004;24.868;2023-07-13T14:34:37;12.98;;;4.20;;
6531;SDS011;3299;42.004;24.868;2023-07-13T14:37:03;14.52;;;4.47;;
6531;SDS011;3299;42.004;24.868;2023-07-13T14:39:29;11.35;;;4.43;;
6531;SDS011;3299;42.004;24.868;2023-07-13T14:41:55;13.38;;;4.47;;
6531;SDS011;3299;42.004;24.868;2023-07-13T14:44:26;12.63;;;5.40;;
6531;SDS011;3299;42.004;24.868;2023-07-13T14:46:56;15.18;;;4.50;;
6531;SDS011;3299;42.004;24.868;2023-07-13T14:49:25;15.60;;;5.32;;
6531;SDS011;3299;42.004;24.868;2023-07-13T14:51:58;16.95;;;4.75;;
6531;SDS011;3299;42.004;24.868;2023-07-13T14:54:26;12.27;;;4.30;;
6531;SDS011;3299;42.004;24.868;2023-07-13T14:56:51;11.73;;;4.78;;
6531;SDS011;3299;42.004;24.868;2023-07-13T14:59:17;11.00;;;4.40;;
6531;SDS011;3299;42.004;24.868;2023-07-13T15:01:44;12.88;;;4.85;;
6531;SDS011;3299;42.004;24.868;2023-07-13T15:04:11;10.55;;;4.07;;
6531;SDS011;3299;42.004;24.868;2023-07-13T15:06:55;11.60;;;4.60;;
6531;SDS011;3299;42.004;24.868;2023-07-13T15:09:22;9.52;;;4.28;;
6531;SDS011;3299;42.004;24.868;2023-07-13T15:11:51;11.88;;;4.57;;
6531;SDS011;3299;42.004;24.868;2023-07-13T15:14:17;18.75;;;5.20;;
6531;SDS011;3299;42.004;24.868;2023-07-13T15:16:49;9.80;;;4.25;;
6531;SDS011;3299;42.004;24.868;2023-07-13T15:19:17;8.60;;;4.30;;
6531;SDS011;3299;42.004;24.868;2023-07-13T15:21:43;11.82;;;4.45;;
6531;SDS011;3299;42.004;24.868;2023-07-13T15:24:10;10.35;;;4.60;;
6531;SDS011;3299;42.004;24.868;2023-07-13T15:26:36;10.27;;;4.32;;
6531;SDS011;3299;42.004;24.868;2023-07-13T15:29:02;15.40;;;4.65;;
6531;SDS011;3299;42.004;24.868;2023-07-13T15:31:29;15.57;;;4.70;;
6531;SDS011;3299;42.004;24.868;2023-07-13T15:33:56;10.02;;;4.75;;
6531;SDS011;3299;42.004;24.868;2023-07-13T15:36:23;11.70;;;4.45;;
6531;SDS011;3299;42.004;24.868;2023-07-13T15:38:51;13.60;;;4.88;;